Flight Track Log - Related Links

Times and Time Zones

All times are in EDT time to prevent confusion due to time zone crossing. See the JBU128 flight status page for this flight to view local times or setup timezone preferences in your user account.

Time Position Orientation Groundspeed Altitude Reporting Facility
EDT Latitude Longitude Course Direction KTS MPH feet Rate Location/Type
Wed 11:01:54 PM 40.6167 -73.8000 14° North 151 174 1,700  Level New York TRACON
Wed 11:02:55 PM 40.5667 -73.8000 180° South 207 238 3,700 2,231 Climbing New York TRACON
Wed 11:03:55 PM 40.6000 -73.7167 62° Northeast 262 302 6,200 2,810 Climbing New York TRACON
Wed 11:05:01 PM 40.6667 -73.6500 37° Northeast 294 338 9,600 2,600 Climbing New York TRACON
Wed 11:05:55 PM 40.7333 -73.5833 37° Northeast 330 380 11,400 2,400 Climbing New York TRACON
Wed 11:06:00 PM 41.1324 -73.4896 27° Northeast  Level FlightAware Approximate
Wed 11:07:00 PM 41.2186 -73.4438 14° North  Level FlightAware Approximate
Wed 11:07:01 PM 40.8167 -73.5000 37° Northeast 370 426 14,400  Level New York TRACON
Wed 11:08:47 PM 40.9853 -73.4300 17° North 381 438 16,900 1,012 Climbing Boston Center
Wed 11:09:47 PM 41.1042 -73.4014 10° North 399 459 17,200 1,200 Climbing Boston Center
Wed 11:10:47 PM 41.2086 -73.3781 10° North 404 465 19,300 1,900 Climbing Boston Center
Wed 11:11:47 PM 41.3214 -73.3522 10° North 410 472 21,000 850 Climbing Boston Center
Wed 11:12:47 PM 41.4361 -73.3428 North 410 472 21,000  Level Boston Center
Wed 11:13:47 PM 41.5486 -73.3472 358° North 405 466 21,000  Level Boston Center
Wed 11:14:47 PM 41.6631 -73.3458 North 405 466 21,000  Level Boston Center
Wed 11:15:47 PM 41.7861 -73.3478 359° North 405 466 21,000  Level Boston Center
Wed 11:16:47 PM 41.9028 -73.3467 360° North 405 466 21,000  Level Boston Center
Wed 11:17:47 PM 42.0153 -73.3453 North 405 466 21,000  Level Boston Center
Wed 11:18:47 PM 42.1300 -73.3472 359° North 405 466 21,000  Level Boston Center
Wed 11:19:47 PM 42.2447 -73.3486 359° North 405 466 21,000  Level Boston Center
Wed 11:20:47 PM 42.3531 -73.3306 North 414 476 21,000  Level Boston Center
Wed 11:21:47 PM 42.4656 -73.3378 357° North 419 482 21,000  Level Boston Center
Wed 11:22:47 PM 42.5825 -73.3339 North 413 475 21,000  Level Boston Center
Wed 11:23:47 PM 42.7031 -73.3469 355° North 408 470 21,000  Level Boston Center
Wed 11:24:47 PM 42.8178 -73.3486 359° North 408 470 21,000  Level Boston Center
Wed 11:25:47 PM 42.9325 -73.3475 360° North 402 463 21,000  Level Boston Center
Wed 11:26:47 PM 43.0492 -73.3378 North 407 468 21,000  Level Boston Center
Wed 11:27:47 PM 43.1639 -73.3225 North 407 468 21,000  Level Boston Center
Wed 11:28:47 PM 43.2808 -73.3100 North 407 468 21,000 -100 Level Boston Center
Wed 11:29:47 PM 43.3933 -73.2944 North 407 468 20,800 -550 Descending Boston Center
Wed 11:30:47 PM 43.4936 -73.2814 North 399 459 19,900 -1,450 Descending Boston Center
Wed 11:31:47 PM 43.6042 -73.2686 North 404 465 17,900 -2,100 Descending Boston Center
Wed 11:32:47 PM 43.7103 -73.2558 North 394 453 15,700 -2,150 Descending Boston Center
Wed 11:33:47 PM 43.8083 -73.2542 North 364 419 13,600 -1,800 Descending Boston Center
Wed 11:34:47 PM 43.9042 -73.2497 North 345 397 12,100 -1,300 Descending Boston Center
Wed 11:35:47 PM 43.9917 -73.2508 359° North 324 373 11,000 -1,100 Descending Boston Center
Wed 11:36:47 PM 44.0731 -73.2522 359° North 302 348 9,900 -1,400 Descending Boston Center
Wed 11:37:47 PM 44.1500 -73.2675 352° North 281 323 8,200 -1,650 Descending Boston Center
Wed 11:38:47 PM 44.2269 -73.2889 349° North 275 316 6,600 -1,600 Descending Boston Center
Wed 11:39:47 PM 44.3017 -73.3103 348° North 275 316 5,000 -1,500 Descending Boston Center
Wed 11:40:47 PM 44.3725 -73.3347 346° North 275 316 3,600 -1,050 Descending Boston Center
Wed 11:41:47 PM 44.4433 -73.3386 358° North 243 280 2,900 -650 Descending Boston Center
Wed 11:42:47 PM 44.4914 -73.3044 27° Northeast 197 227 2,300 -600 Descending Boston Center
Wed 11:43:47 PM 44.5211 -73.2522 51° Northeast 173 199 1,700 -600 Descending Boston Center

Login

Don't have an account? Register now (free) for customized features, flight alerts, and more!